sensor_id;sensor_type;location;lat;lon;timestamp;pressure;altitude;pressure_sealevel;temperature;humidity
12897;BME280;6516;35.028;32.372;2023-02-11T00:01:11;100965.31;;;7.16;68.71
12897;BME280;6516;35.028;32.372;2023-02-11T00:03:42;100966.09;;;7.09;68.66
12897;BME280;6516;35.028;32.372;2023-02-11T00:06:15;100954.78;;;7.10;68.91
12897;BME280;6516;35.028;32.372;2023-02-11T00:08:44;100967.78;;;7.01;68.88
12897;BME280;6516;35.028;32.372;2023-02-11T00:11:13;100963.34;;;6.93;69.20
12897;BME280;6516;35.028;32.372;2023-02-11T00:13:41;100965.03;;;6.88;69.32
12897;BME280;6516;35.028;32.372;2023-02-11T00:16:11;100961.50;;;6.86;69.23
12897;BME280;6516;35.028;32.372;2023-02-11T00:18:40;100950.03;;;6.73;69.79
12897;BME280;6516;35.028;32.372;2023-02-11T00:21:09;100946.50;;;6.68;70.08
12897;BME280;6516;35.028;32.372;2023-02-11T00:23:38;100947.28;;;6.61;70.25
12897;BME280;6516;35.028;32.372;2023-02-11T00:26:12;100939.47;;;6.60;69.92
12897;BME280;6516;35.028;32.372;2023-02-11T00:28:40;100946.34;;;6.53;70.61
12897;BME280;6516;35.028;32.372;2023-02-11T00:31:08;100947.19;;;6.51;70.64
12897;BME280;6516;35.028;32.372;2023-02-11T00:33:36;100937.59;;;6.48;70.29
12897;BME280;6516;35.028;32.372;2023-02-11T00:36:05;100931.44;;;6.46;70.77
12897;BME280;6516;35.028;32.372;2023-02-11T00:38:33;100932.31;;;6.45;70.96
12897;BME280;6516;35.028;32.372;2023-02-11T00:41:01;100927.94;;;6.46;71.38
12897;BME280;6516;35.028;32.372;2023-02-11T00:43:31;100919.22;;;6.44;71.27
12897;BME280;6516;35.028;32.372;2023-02-11T00:45:58;100924.44;;;6.44;71.39
12897;BME280;6516;35.028;32.372;2023-02-11T00:48:27;100923.56;;;6.43;71.25
12897;BME280;6516;35.028;32.372;2023-02-11T00:50:55;100921.81;;;6.44;71.15
12897;BME280;6516;35.028;32.372;2023-02-11T00:53:23;100921.81;;;6.44;71.23
12897;BME280;6516;35.028;32.372;2023-02-11T00:55:51;100917.44;;;6.41;70.92
12897;BME280;6516;35.028;32.372;2023-02-11T00:58:19;100913.03;;;6.37;71.18
12897;BME280;6516;35.028;32.372;2023-02-11T01:00:48;100908.78;;;6.45;71.17
12897;BME280;6516;35.028;32.372;2023-02-11T01:03:16;100917.47;;;6.43;71.50
12897;BME280;6516;35.028;32.372;2023-02-11T01:05:44;100913.94;;;6.41;71.60
12897;BME280;6516;35.028;32.372;2023-02-11T01:08:11;100908.69;;;6.38;71.46
12897;BME280;6516;35.028;32.372;2023-02-11T01:10:39;100910.38;;;6.34;71.83
12897;BME280;6516;35.028;32.372;2023-02-11T01:13:08;100913.94;;;6.41;71.98
12897;BME280;6516;35.028;32.372;2023-02-11T01:15:36;100914.94;;;6.52;72.12
12897;BME280;6516;35.028;32.372;2023-02-11T01:18:05;100912.22;;;6.43;72.12
12897;BME280;6516;35.028;32.372;2023-02-11T01:20:34;100913.09;;;6.42;72.49
12897;BME280;6516;35.028;32.372;2023-02-11T01:23:01;100913.03;;;6.37;72.73
12897;BME280;6516;35.028;32.372;2023-02-11T01:25:29;100911.31;;;6.38;73.16
12897;BME280;6516;35.028;32.372;2023-02-11T01:27:57;100904.41;;;6.47;73.01
12897;BME280;6516;35.028;32.372;2023-02-11T01:30:25;100909.66;;;6.44;73.03
12897;BME280;6516;35.028;32.372;2023-02-11T01:32:52;100899.09;;;6.38;72.98
12897;BME280;6516;35.028;32.372;2023-02-11T01:35:22;100900.00;;;6.40;73.36
12897;BME280;6516;35.028;32.372;2023-02-11T01:37:49;100899.28;;;6.56;73.18
12897;BME280;6516;35.028;32.372;2023-02-11T01:40:18;100894.88;;;6.52;73.05
12897;BME280;6516;35.028;32.372;2023-02-11T01:42:45;100898.34;;;6.50;72.95
12897;BME280;6516;35.028;32.372;2023-02-11T01:45:48;100895.75;;;6.48;73.37
12897;BME280;6516;35.028;32.372;2023-02-11T01:48:27;100899.28;;;6.53;73.43
12897;BME280;6516;35.028;32.372;2023-02-11T01:51:02;100895.75;;;6.51;73.39
12897;BME280;6516;35.028;32.372;2023-02-11T01:53:33;100894.84;;;6.48;73.39
12897;BME280;6516;35.028;32.372;2023-02-11T01:56:20;100898.34;;;6.50;73.51
12897;BME280;6516;35.028;32.372;2023-02-11T01:59:11;100891.38;;;6.50;73.59
12897;BME280;6516;35.028;32.372;2023-02-11T02:01:45;100892.28;;;6.52;73.51
12897;BME280;6516;35.028;32.372;2023-02-11T02:04:17;100880.06;;;6.51;73.86
12897;BME280;6516;35.028;32.372;2023-02-11T02:06:50;100879.19;;;6.49;73.93
12897;BME280;6516;35.028;32.372;2023-02-11T02:09:24;100869.59;;;6.51;73.75
12897;BME280;6516;35.028;32.372;2023-02-11T02:11:54;100876.63;;;6.55;73.49
12897;BME280;6516;35.028;32.372;2023-02-11T02:14:22;100866.28;;;6.67;73.51
12897;BME280;6516;35.028;32.372;2023-02-11T02:16:51;100874.06;;;6.63;73.54
12897;BME280;6516;35.028;32.372;2023-02-11T02:22:59;100868.91;;;6.67;73.61
12897;BME280;6516;35.028;32.372;2023-02-11T02:29:42;100872.53;;;6.83;73.54
12897;BME280;6516;35.028;32.372;2023-02-11T02:32:42;100867.28;;;6.84;73.95
12897;BME280;6516;35.028;32.372;2023-02-11T02:35:26;100872.56;;;6.89;73.34
12897;BME280;6516;35.028;32.372;2023-02-11T02:38:01;100858.66;;;6.94;73.26
12897;BME280;6516;35.028;32.372;2023-02-11T02:40:36;100862.28;;;7.10;72.86
12897;BME280;6516;35.028;32.372;2023-02-11T02:43:09;100854.44;;;7.14;72.72
12897;BME280;6516;35.028;32.372;2023-02-11T02:45:37;100858.03;;;7.24;72.35
12897;BME280;6516;35.028;32.372;2023-02-11T02:48:06;100850.09;;;7.15;72.87
12897;BME280;6516;35.028;32.372;2023-02-11T02:50:48;100852.75;;;7.22;72.79
12897;BME280;6516;35.028;32.372;2023-02-11T02:53:23;100851.00;;;7.18;73.04
12897;BME280;6516;35.028;32.372;2023-02-11T02:55:59;100853.59;;;7.18;73.06
12897;BME280;6516;35.028;32.372;2023-02-11T02:58:45;100858.00;;;7.22;73.44
12897;BME280;6516;35.028;32.372;2023-02-11T03:01:27;100849.25;;;7.19;73.48
12897;BME280;6516;35.028;32.372;2023-02-11T03:04:09;100845.66;;;7.06;73.74
12897;BME280;6516;35.028;32.372;2023-02-11T03:06:46;100842.97;;;6.94;73.87
12897;BME280;6516;35.028;32.372;2023-02-11T03:09:22;100848.19;;;6.94;74.45
12897;BME280;6516;35.028;32.372;2023-02-11T03:11:54;100852.53;;;6.89;75.09
12897;BME280;6516;35.028;32.372;2023-02-11T03:14:24;100843.78;;;6.87;75.48
12897;BME280;6516;35.028;32.372;2023-02-11T03:16:54;100845.50;;;6.88;75.76
12897;BME280;6516;35.028;32.372;2023-02-11T03:19:27;100838.63;;;7.02;75.61
12897;BME280;6516;35.028;32.372;2023-02-11T03:21:56;100845.66;;;7.06;75.54
12897;BME280;6516;35.028;32.372;2023-02-11T03:24:28;100846.56;;;7.08;75.41
12897;BME280;6516;35.028;32.372;2023-02-11T03:27:01;100846.50;;;6.99;75.43
12897;BME280;6516;35.028;32.372;2023-02-11T03:29:34;100851.69;;;6.96;75.41
12897;BME280;6516;35.028;32.372;2023-02-11T03:32:06;100845.59;;;6.94;75.32
12897;BME280;6516;35.028;32.372;2023-02-11T03:34:45;100856.91;;;6.95;75.29
12897;BME280;6516;35.028;32.372;2023-02-11T03:37:21;100856.88;;;6.90;75.24
12897;BME280;6516;35.028;32.372;2023-02-11T03:39:53;100857.78;;;6.95;75.49
12897;BME280;6516;35.028;32.372;2023-02-11T03:42:26;100849.09;;;6.99;75.30
12897;BME280;6516;35.028;32.372;2023-02-11T03:45:02;100848.25;;;7.00;75.10
12897;BME280;6516;35.028;32.372;2023-02-11T03:47:35;100861.28;;;6.97;75.06
12897;BME280;6516;35.028;32.372;2023-02-11T03:50:08;100869.94;;;6.87;75.03
12897;BME280;6516;35.028;32.372;2023-02-11T03:52:37;100869.88;;;6.80;75.30
12897;BME280;6516;35.028;32.372;2023-02-11T03:55:09;100865.47;;;6.76;75.26
12897;BME280;6516;35.028;32.372;2023-02-11T03:57:39;100864.53;;;6.69;75.65
12897;BME280;6516;35.028;32.372;2023-02-11T04:00:08;100854.97;;;6.73;75.67
12897;BME280;6516;35.028;32.372;2023-02-11T04:02:37;100860.19;;;6.70;76.02
12897;BME280;6516;35.028;32.372;2023-02-11T04:05:08;100855.84;;;6.69;76.24
12897;BME280;6516;35.028;32.372;2023-02-11T04:07:37;100862.75;;;6.62;76.21
12897;BME280;6516;35.028;32.372;2023-02-11T04:10:05;100858.38;;;6.60;76.50
12897;BME280;6516;35.028;32.372;2023-02-11T04:12:34;100857.44;;;6.53;76.57
12897;BME280;6516;35.028;32.372;2023-02-11T04:15:01;100855.66;;;6.49;76.89
12897;BME280;6516;35.028;32.372;2023-02-11T04:17:29;100854.72;;;6.47;77.26
12897;BME280;6516;35.028;32.372;2023-02-11T04:19:57;100860.78;;;6.43;77.20
12897;BME280;6516;35.028;32.372;2023-02-11T04:22:27;100864.31;;;6.45;77.10
12897;BME280;6516;35.028;32.372;2023-02-11T04:24:56;100862.53;;;6.41;77.04
12897;BME280;6516;35.028;32.372;2023-02-11T04:27:24;100856.41;;;6.39;77.20
12897;BME280;6516;35.028;32.372;2023-02-11T04:29:51;100852.94;;;6.40;77.47
12897;BME280;6516;35.028;32.372;2023-02-11T04:32:19;100860.81;;;6.45;77.71
12897;BME280;6516;35.028;32.372;2023-02-11T04:34:47;100852.09;;;6.46;77.58
12897;BME280;6516;35.028;32.372;2023-02-11T04:37:15;100851.25;;;6.47;77.63
12897;BME280;6516;35.028;32.372;2023-02-11T04:39:44;100853.03;;;6.49;77.48
12897;BME280;6516;35.028;32.372;2023-02-11T04:42:12;100853.88;;;6.50;77.71
12897;BME280;6516;35.028;32.372;2023-02-11T04:44:40;100854.00;;;6.57;77.68
12897;BME280;6516;35.028;32.372;2023-02-11T04:47:07;100858.31;;;6.55;77.54
12897;BME280;6516;35.028;32.372;2023-02-11T04:49:37;100851.34;;;6.56;77.71
12897;BME280;6516;35.028;32.372;2023-02-11T04:52:05;100849.59;;;6.56;77.68
12897;BME280;6516;35.028;32.372;2023-02-11T04:54:32;100853.97;;;6.59;77.36
12897;BME280;6516;35.028;32.372;2023-02-11T04:57:02;100857.44;;;6.56;77.32
12897;BME280;6516;35.028;32.372;2023-02-11T04:59:30;100856.59;;;6.56;77.20
12897;BME280;6516;35.028;32.372;2023-02-11T05:01:57;100857.47;;;6.58;77.14
12897;BME280;6516;35.028;32.372;2023-02-11T05:04:25;100863.59;;;6.63;77.20
12897;BME280;6516;35.028;32.372;2023-02-11T05:06:53;100864.53;;;6.68;77.38
12897;BME280;6516;35.028;32.372;2023-02-11T05:09:21;100861.13;;;6.76;77.41
12897;BME280;6516;35.028;32.372;2023-02-11T05:11:49;100858.53;;;6.79;77.10
12897;BME280;6516;35.028;32.372;2023-02-11T05:14:18;100863.84;;;6.88;77.09
12897;BME280;6516;35.028;32.372;2023-02-11T05:16:45;100865.66;;;6.95;77.14
12897;BME280;6516;35.028;32.372;2023-02-11T05:19:13;100859.59;;;7.02;76.96
12897;BME280;6516;35.028;32.372;2023-02-11T05:21:41;100865.81;;;7.16;76.37
12897;BME280;6516;35.028;32.372;2023-02-11T05:24:10;100872.00;;;7.27;76.26
12897;BME280;6516;35.028;32.372;2023-02-11T05:26:37;100871.19;;;7.36;75.80
12897;BME280;6516;35.028;32.372;2023-02-11T05:29:05;100868.59;;;7.43;75.10
12897;BME280;6516;35.028;32.372;2023-02-11T05:31:34;100867.78;;;7.52;75.30
12897;BME280;6516;35.028;32.372;2023-02-11T05:34:02;100876.56;;;7.58;75.25
12897;BME280;6516;35.028;32.372;2023-02-11T05:36:29;100873.97;;;7.63;74.94
12897;BME280;6516;35.028;32.372;2023-02-11T05:38:57;100872.34;;;7.84;74.32
12897;BME280;6516;35.028;32.372;2023-02-11T05:41:25;100875.88;;;7.95;73.56
12897;BME280;6516;35.028;32.372;2023-02-11T05:43:53;100875.91;;;8.09;72.73
12897;BME280;6516;35.028;32.372;2023-02-11T05:46:20;100876.88;;;8.24;72.87
12897;BME280;6516;35.028;32.372;2023-02-11T05:48:50;100875.16;;;8.38;72.02
12897;BME280;6516;35.028;32.372;2023-02-11T05:51:17;100872.56;;;8.47;72.11
12897;BME280;6516;35.028;32.372;2023-02-11T05:53:45;100877.88;;;8.68;71.21
12897;BME280;6516;35.028;32.372;2023-02-11T05:56:13;100891.03;;;8.80;71.34
12897;BME280;6516;35.028;32.372;2023-02-11T05:58:41;100888.38;;;8.94;69.93
12897;BME280;6516;35.028;32.372;2023-02-11T06:01:09;100891.00;;;9.10;69.31
12897;BME280;6516;35.028;32.372;2023-02-11T06:03:36;100893.66;;;9.25;68.97
12897;BME280;6516;35.028;32.372;2023-02-11T06:06:10;100888.41;;;9.33;68.64
12897;BME280;6516;35.028;32.372;2023-02-11T06:08:38;100888.38;;;9.52;67.02
12897;BME280;6516;35.028;32.372;2023-02-11T06:11:06;100891.84;;;9.54;66.86
12897;BME280;6516;35.028;32.372;2023-02-11T06:13:34;100898.81;;;9.79;66.89
12897;BME280;6516;35.028;32.372;2023-02-11T06:16:02;100897.88;;;9.94;66.00
12897;BME280;6516;35.028;32.372;2023-02-11T06:18:30;100893.50;;;10.06;65.25
12897;BME280;6516;35.028;32.372;2023-02-11T06:20:58;100889.06;;;10.16;64.48
12897;BME280;6516;35.028;32.372;2023-02-11T06:23:28;100900.41;;;10.30;64.54
12897;BME280;6516;35.028;32.372;2023-02-11T06:26:00;100888.03;;;10.45;64.71
12897;BME280;6516;35.028;32.372;2023-02-11T06:28:29;100894.13;;;10.56;62.21
12897;BME280;6516;35.028;32.372;2023-02-11T06:30:57;100893.13;;;10.72;60.88
12897;BME280;6516;35.028;32.372;2023-02-11T06:33:25;100886.06;;;10.77;60.88
12897;BME280;6516;35.028;32.372;2023-02-11T06:35:52;100891.34;;;10.80;60.72
12897;BME280;6516;35.028;32.372;2023-02-11T06:38:20;100889.47;;;10.98;60.35
12897;BME280;6516;35.028;32.372;2023-02-11T06:40:50;100887.66;;;11.02;59.99
12897;BME280;6516;35.028;32.372;2023-02-11T06:43:17;100888.50;;;11.09;59.67
12897;BME280;6516;35.028;32.372;2023-02-11T06:45:51;100895.41;;;11.21;58.67
12897;BME280;6516;35.028;32.372;2023-02-11T06:48:20;100889.22;;;11.25;58.23
12897;BME280;6516;35.028;32.372;2023-02-11T06:50:48;100893.53;;;11.35;58.02
12897;BME280;6516;35.028;32.372;2023-02-11T06:53:15;100878.38;;;11.58;58.91
12897;BME280;6516;35.028;32.372;2023-02-11T06:55:43;100889.84;;;11.49;57.79
12897;BME280;6516;35.028;32.372;2023-02-11T06:58:13;100879.28;;;11.52;58.00
12897;BME280;6516;35.028;32.372;2023-02-11T07:00:41;100889.69;;;11.67;56.29
12897;BME280;6516;35.028;32.372;2023-02-11T07:03:08;100876.38;;;11.84;56.22
12897;BME280;6516;35.028;32.372;2023-02-11T07:05:36;100871.78;;;11.98;57.81
12897;BME280;6516;35.028;32.372;2023-02-11T07:08:04;100873.44;;;12.08;55.99
12897;BME280;6516;35.028;32.372;2023-02-11T07:10:33;100859.31;;;12.10;55.09
12897;BME280;6516;35.028;32.372;2023-02-11T07:13:00;100865.72;;;11.90;55.43
12897;BME280;6516;35.028;32.372;2023-02-11T07:15:30;100856.72;;;12.06;54.62
12897;BME280;6516;35.028;32.372;2023-02-11T07:17:58;100852.22;;;12.14;55.98
12897;BME280;6516;35.028;32.372;2023-02-11T07:20:25;100858.16;;;12.31;55.21
12897;BME280;6516;35.028;32.372;2023-02-11T07:22:53;100837.72;;;12.43;54.00
12897;BME280;6516;35.028;32.372;2023-02-11T07:25:21;100849.88;;;12.56;54.60
12897;BME280;6516;35.028;32.372;2023-02-11T07:27:49;100848.97;;;12.56;53.45
12897;BME280;6516;35.028;32.372;2023-02-11T07:30:17;100847.19;;;12.61;53.54
12897;BME280;6516;35.028;32.372;2023-02-11T07:32:46;100852.38;;;12.65;53.00
12897;BME280;6516;35.028;32.372;2023-02-11T07:35:14;100850.56;;;12.69;52.31
12897;BME280;6516;35.028;32.372;2023-02-11T07:37:42;100846.81;;;12.82;52.33
12897;BME280;6516;35.028;32.372;2023-02-11T07:40:10;100846.97;;;12.73;52.40
12897;BME280;6516;35.028;32.372;2023-02-11T07:42:38;100847.75;;;12.79;51.75
12897;BME280;6516;35.028;32.372;2023-02-11T07:45:07;100848.50;;;12.89;52.06
12897;BME280;6516;35.028;32.372;2023-02-11T07:47:35;100823.34;;;13.18;52.19
12897;BME280;6516;35.028;32.372;2023-02-11T07:50:05;100853.44;;;13.10;51.65
12897;BME280;6516;35.028;32.372;2023-02-11T07:52:34;100837.22;;;13.31;51.00
12897;BME280;6516;35.028;32.372;2023-02-11T07:55:02;100832.88;;;13.27;51.47
12897;BME280;6516;35.028;32.372;2023-02-11T07:57:30;100841.88;;;13.17;51.57
12897;BME280;6516;35.028;32.372;2023-02-11T07:59:59;100831.34;;;13.14;52.26
12897;BME280;6516;35.028;32.372;2023-02-11T08:02:27;100832.13;;;13.19;52.60
12897;BME280;6516;35.028;32.372;2023-02-11T08:04:55;100832.66;;;13.39;52.72
12897;BME280;6516;35.028;32.372;2023-02-11T08:07:24;100821.22;;;13.37;51.46
12897;BME280;6516;35.028;32.372;2023-02-11T08:09:54;100827.34;;;13.40;51.54
12897;BME280;6516;35.028;32.372;2023-02-11T08:12:22;100825.50;;;13.45;50.04
12897;BME280;6516;35.028;32.372;2023-02-11T08:14:49;100825.38;;;13.51;50.72
12897;BME280;6516;35.028;32.372;2023-02-11T08:17:17;100818.19;;;13.58;50.60
12897;BME280;6516;35.028;32.372;2023-02-11T08:19:48;100821.47;;;13.69;50.01
12897;BME280;6516;35.028;32.372;2023-02-11T08:22:16;100804.59;;;13.76;51.19
12897;BME280;6516;35.028;32.372;2023-02-11T08:24:45;100806.53;;;13.68;50.79
12897;BME280;6516;35.028;32.372;2023-02-11T08:27:13;100804.75;;;13.68;49.14
12897;BME280;6516;35.028;32.372;2023-02-11T08:29:41;100793.09;;;13.77;49.90
12897;BME280;6516;35.028;32.372;2023-02-11T08:32:09;100803.69;;;13.77;49.46
12897;BME280;6516;35.028;32.372;2023-02-11T08:34:36;100801.19;;;13.71;49.42
12897;BME280;6516;35.028;32.372;2023-02-11T08:37:04;100799.53;;;13.64;49.19
12897;BME280;6516;35.028;32.372;2023-02-11T08:39:32;100799.53;;;13.64;50.02
12897;BME280;6516;35.028;32.372;2023-02-11T08:42:01;100787.84;;;13.75;50.22
12897;BME280;6516;35.028;32.372;2023-02-11T08:44:29;100787.63;;;13.86;49.41
12897;BME280;6516;35.028;32.372;2023-02-11T08:46:57;100786.63;;;13.91;50.49
12897;BME280;6516;35.028;32.372;2023-02-11T08:49:24;100774.53;;;13.80;49.84
12897;BME280;6516;35.028;32.372;2023-02-11T08:51:52;100782.50;;;13.77;49.07
12897;BME280;6516;35.028;32.372;2023-02-11T08:54:24;100774.56;;;13.78;49.28
12897;BME280;6516;35.028;32.372;2023-02-11T08:56:52;100778.09;;;13.79;51.24
12897;BME280;6516;35.028;32.372;2023-02-11T08:59:22;100780.25;;;14.00;50.99
12897;BME280;6516;35.028;32.372;2023-02-11T09:01:50;100776.91;;;13.92;49.75
12897;BME280;6516;35.028;32.372;2023-02-11T09:04:18;100773.94;;;14.07;50.00
12897;BME280;6516;35.028;32.372;2023-02-11T09:06:46;100773.19;;;14.00;49.86
12897;BME280;6516;35.028;32.372;2023-02-11T09:09:14;100761.63;;;14.06;50.22
12897;BME280;6516;35.028;32.372;2023-02-11T09:11:43;100760.59;;;14.11;50.66
12897;BME280;6516;35.028;32.372;2023-02-11T09:14:16;100755.41;;;14.07;51.43
12897;BME280;6516;35.028;32.372;2023-02-11T09:16:47;100753.59;;;14.07;49.77
12897;BME280;6516;35.028;32.372;2023-02-11T09:19:17;100757.09;;;14.11;50.05
12897;BME280;6516;35.028;32.372;2023-02-11T09:21:45;100743.09;;;14.06;49.92
12897;BME280;6516;35.028;32.372;2023-02-11T09:24:13;100747.25;;;14.16;49.88
12897;BME280;6516;35.028;32.372;2023-02-11T09:26:41;100735.59;;;14.24;50.21
12897;BME280;6516;35.028;32.372;2023-02-11T09:29:09;100749.53;;;13.94;51.78
12897;BME280;6516;35.028;32.372;2023-02-11T09:31:38;100738.59;;;14.08;50.31
12897;BME280;6516;35.028;32.372;2023-02-11T09:34:09;100728.00;;;14.08;50.07
12897;BME280;6516;35.028;32.372;2023-02-11T09:36:38;100743.19;;;14.00;51.41
12897;BME280;6516;35.028;32.372;2023-02-11T09:39:08;100738.88;;;13.96;49.78
12897;BME280;6516;35.028;32.372;2023-02-11T09:41:58;100740.88;;;13.85;50.65
12897;BME280;6516;35.028;32.372;2023-02-11T09:44:48;100731.84;;;13.95;50.21
12897;BME280;6516;35.028;32.372;2023-02-11T09:47:23;100735.91;;;14.11;49.32
12897;BME280;6516;35.028;32.372;2023-02-11T09:49:58;100733.81;;;14.26;50.01
12897;BME280;6516;35.028;32.372;2023-02-11T09:52:36;100733.97;;;14.17;49.80
12897;BME280;6516;35.028;32.372;2023-02-11T09:55:16;100733.06;;;14.18;48.68
12897;BME280;6516;35.028;32.372;2023-02-11T09:57:46;100728.69;;;14.17;49.40
12897;BME280;6516;35.028;32.372;2023-02-11T10:00:21;100708.44;;;14.15;48.24
12897;BME280;6516;35.028;32.372;2023-02-11T10:03:19;100723.66;;;14.05;47.31
12897;BME280;6516;35.028;32.372;2023-02-11T10:06:24;100723.81;;;13.99;47.84
12897;BME280;6516;35.028;32.372;2023-02-11T10:09:06;100720.84;;;14.13;47.51
12897;BME280;6516;35.028;32.372;2023-02-11T10:11:48;100712.88;;;14.13;48.49
12897;BME280;6516;35.028;32.372;2023-02-11T10:14:28;100714.50;;;14.20;47.53
12897;BME280;6516;35.028;32.372;2023-02-11T10:17:18;100711.56;;;14.32;47.81
12897;BME280;6516;35.028;32.372;2023-02-11T10:20:03;100700.44;;;14.16;47.57
12897;BME280;6516;35.028;32.372;2023-02-11T10:22:43;100701.13;;;14.26;47.75
12897;BME280;6516;35.028;32.372;2023-02-11T10:25:20;100706.25;;;13.95;46.61
12897;BME280;6516;35.028;32.372;2023-02-11T10:27:50;100703.97;;;14.17;48.40
12897;BME280;6516;35.028;32.372;2023-02-11T10:30:23;100699.28;;;13.91;48.96
12897;BME280;6516;35.028;32.372;2023-02-11T10:32:59;100688.31;;;14.06;51.01
12897;BME280;6516;35.028;32.372;2023-02-11T10:35:31;100705.00;;;14.10;48.71
12897;BME280;6516;35.028;32.372;2023-02-11T10:38:00;100693.50;;;14.12;49.32
12897;BME280;6516;35.028;32.372;2023-02-11T10:40:29;100699.81;;;14.07;48.91
12897;BME280;6516;35.028;32.372;2023-02-11T10:43:01;100696.09;;;14.14;50.10
12897;BME280;6516;35.028;32.372;2023-02-11T10:45:32;100693.72;;;14.03;49.01
12897;BME280;6516;35.028;32.372;2023-02-11T10:48:04;100694.53;;;14.05;46.81
12897;BME280;6516;35.028;32.372;2023-02-11T10:50:34;100682.09;;;14.09;48.64
12897;BME280;6516;35.028;32.372;2023-02-11T10:53:16;100697.97;;;14.09;46.92
12897;BME280;6516;35.028;32.372;2023-02-11T10:55:51;100687.94;;;14.24;46.63
12897;BME280;6516;35.028;32.372;2023-02-11T10:58:24;100688.50;;;14.37;49.77
12897;BME280;6516;35.028;32.372;2023-02-11T11:00:56;100679.44;;;14.47;47.46
12897;BME280;6516;35.028;32.372;2023-02-11T11:03:26;100684.81;;;14.44;47.48
12897;BME280;6516;35.028;32.372;2023-02-11T11:05:57;100681.84;;;14.56;47.05
12897;BME280;6516;35.028;32.372;2023-02-11T11:08:39;100678.09;;;14.64;46.35
12897;BME280;6516;35.028;32.372;2023-02-11T11:11:11;100675.41;;;14.66;48.17
12897;BME280;6516;35.028;32.372;2023-02-11T11:13:41;100678.41;;;14.84;47.46
12897;BME280;6516;35.028;32.372;2023-02-11T11:16:24;100678.88;;;14.68;45.90
12897;BME280;6516;35.028;32.372;2023-02-11T11:19:14;100671.91;;;14.64;47.49
12897;BME280;6516;35.028;32.372;2023-02-11T11:21:47;100675.19;;;14.73;47.15
12897;BME280;6516;35.028;32.372;2023-02-11T11:24:21;100674.13;;;14.47;47.27
12897;BME280;6516;35.028;32.372;2023-02-11T11:26:51;100674.28;;;14.41;46.20
12897;BME280;6516;35.028;32.372;2023-02-11T11:29:24;100675.56;;;14.25;47.43
12897;BME280;6516;35.028;32.372;2023-02-11T11:31:57;100679.78;;;14.32;46.96
12897;BME280;6516;35.028;32.372;2023-02-11T11:34:30;100673.69;;;14.30;46.66
12897;BME280;6516;35.028;32.372;2023-02-11T11:37:08;100672.75;;;14.31;46.34
12897;BME280;6516;35.028;32.372;2023-02-11T11:39:39;100668.13;;;14.40;46.76
12897;BME280;6516;35.028;32.372;2023-02-11T11:42:24;100661.41;;;14.26;46.19
12897;BME280;6516;35.028;32.372;2023-02-11T11:44:57;100659.53;;;14.31;46.22
12897;BME280;6516;35.028;32.372;2023-02-11T11:47:32;100660.44;;;14.30;45.88
12897;BME280;6516;35.028;32.372;2023-02-11T11:50:22;100665.06;;;14.19;46.47
12897;BME280;6516;35.028;32.372;2023-02-11T11:52:57;100664.81;;;14.31;48.58
12897;BME280;6516;35.028;32.372;2023-02-11T11:55:34;100648.53;;;14.46;47.72
12897;BME280;6516;35.028;32.372;2023-02-11T11:58:12;100665.59;;;14.34;46.95
12897;BME280;6516;35.028;32.372;2023-02-11T12:00:51;100653.00;;;14.44;46.35
12897;BME280;6516;35.028;32.372;2023-02-11T12:03:51;100652.22;;;14.40;47.13
12897;BME280;6516;35.028;32.372;2023-02-11T12:06:41;100659.69;;;14.25;45.34
12897;BME280;6516;35.028;32.372;2023-02-11T12:09:21;100653.53;;;14.23;46.60
12897;BME280;6516;35.028;32.372;2023-02-11T12:12:16;100657.81;;;14.28;48.81
12897;BME280;6516;35.028;32.372;2023-02-11T12:14:56;100650.75;;;14.29;47.55
12897;BME280;6516;35.028;32.372;2023-02-11T12:17:45;100658.41;;;14.39;48.91
12897;BME280;6516;35.028;32.372;2023-02-11T12:20:31;100654.69;;;14.48;47.75
12897;BME280;6516;35.028;32.372;2023-02-11T12:23:20;100650.88;;;14.23;46.78
12897;BME280;6516;35.028;32.372;2023-02-11T12:26:06;100659.66;;;14.26;47.00
12897;BME280;6516;35.028;32.372;2023-02-11T12:28:49;100650.44;;;14.41;46.28
12897;BME280;6516;35.028;32.372;2023-02-11T12:31:33;100647.03;;;14.36;45.74
12897;BME280;6516;35.028;32.372;2023-02-11T12:34:36;100656.16;;;14.24;46.20
12897;BME280;6516;35.028;32.372;2023-02-11T12:37:21;100641.22;;;14.22;47.06
12897;BME280;6516;35.028;32.372;2023-02-11T12:40:02;100647.47;;;14.16;46.54
12897;BME280;6516;35.028;32.372;2023-02-11T12:42:49;100648.56;;;14.09;47.41
12897;BME280;6516;35.028;32.372;2023-02-11T12:46:01;100644.28;;;14.02;49.18
12897;BME280;6516;35.028;32.372;2023-02-11T12:48:51;100641.53;;;14.08;48.09
12897;BME280;6516;35.028;32.372;2023-02-11T12:51:50;100634.56;;;14.04;50.66
12897;BME280;6516;35.028;32.372;2023-02-11T12:54:28;100631.53;;;14.19;48.13
12897;BME280;6516;35.028;32.372;2023-02-11T12:57:00;100630.81;;;14.13;47.59
12897;BME280;6516;35.028;32.372;2023-02-11T12:59:39;100632.25;;;13.89;48.03
12897;BME280;6516;35.028;32.372;2023-02-11T13:02:18;100636.25;;;13.69;47.78
12897;BME280;6516;35.028;32.372;2023-02-11T13:04:53;100643.78;;;13.49;50.73
12897;BME280;6516;35.028;32.372;2023-02-11T13:07:27;100634.16;;;13.46;50.37
12897;BME280;6516;35.028;32.372;2023-02-11T13:10:04;100653.75;;;13.38;50.98
12897;BME280;6516;35.028;32.372;2023-02-11T13:12:45;100637.19;;;13.28;51.75
12897;BME280;6516;35.028;32.372;2023-02-11T13:15:32;100644.19;;;13.29;49.74
12897;BME280;6516;35.028;32.372;2023-02-11T13:18:04;100636.00;;;13.43;50.26
12897;BME280;6516;35.028;32.372;2023-02-11T13:20:58;100632.09;;;13.59;50.02
12897;BME280;6516;35.028;32.372;2023-02-11T13:23:40;100643.91;;;13.44;49.63
12897;BME280;6516;35.028;32.372;2023-02-11T13:26:15;100642.53;;;13.24;49.04
12897;BME280;6516;35.028;32.372;2023-02-11T13:28:51;100644.97;;;13.34;49.07
12897;BME280;6516;35.028;32.372;2023-02-11T13:31:22;100641.59;;;13.28;50.22